Agat, Guam
Current Conditions -  °F | °C
As of 7:54 AM on Sunday 21 Dec 2014 (Local Time) from PGUM Reporting Station
Broken Clouds Broken Clouds  
Wind Chill: 83°   Ceiling: 8500
Heat Index: 90°   Visibility: 10mi
Dew Point: 75°   Wind: 13mph
Humidity: 77%   Direction: 60°ENE
Pressure: 29.92"   Gusts: 20mph
Location:  13.38°N, 144.65°E
Report Text: PGUM 202154Z 06011G17KT 10SM FEW030 BKN085 28/24 A2992 RMK AO2 RAB14E24 SLP123 P0000 T02830239
Loading
Personal Weather Stations






























Interactive Weather Map New forecast layout! Learn more

10-Day Weather Forecast

Advertisements
Track Severe Weather on mobile